Time,TemperatureF,DewpointF,PressureIn,WindDirection,WindDirectionDegrees,WindSpeedMPH,WindSpeedGustMPH,Humidity,HourlyPrecipIn,Conditions,Clouds,dailyrainin,SolarRadiationWatts/m^2,SoftwareType,DateUTC
2013-06-14 00:03:00,79.9,69.7,29.78,ESE,121,0.0,0.0,71,0.00,,CLR,0.00,0.00,VWS V14.00,2013-06-14 04:03:00,
2013-06-14 00:04:00,79.9,69.7,29.78,ESE,121,0.0,0.0,71,0.00,,CLR,0.00,0.00,VWS V14.00,2013-06-14 04:04:00,
2013-06-14 00:09:00,79.8,69.6,29.78,ESE,121,0.0,0.0,71,0.00,,CLR,0.00,0.00,VWS V14.00,2013-06-14 04:09:00,
2013-06-14 00:14:00,79.6,69.8,29.78,ESE,121,0.0,0.0,72,0.00,,CLR,0.00,0.00,VWS V14.00,2013-06-14 04:14:00,
2013-06-14 00:19:00,79.4,69.6,29.77,ESE,121,0.0,0.0,72,0.00,,CLR,0.00,0.00,VWS V14.00,2013-06-14 04:19:00,
2013-06-14 00:24:00,79.2,69.4,29.77,ESE,121,0.0,0.0,72,0.00,,CLR,0.00,0.00,VWS V14.00,2013-06-14 04:24:00,
2013-06-14 00:29:00,79.0,69.2,29.77,ESE,121,0.0,0.0,72,0.00,,CLR,0.00,0.00,VWS V14.00,2013-06-14 04:29:00,
2013-06-14 00:34:00,78.8,69.0,29.78,ESE,121,0.0,0.0,72,0.00,,CLR,0.00,0.00,VWS V14.00,2013-06-14 04:34:00,
2013-06-14 00:39:00,78.6,69.2,29.78,SE,128,0.0,1.0,73,0.00,,CLR,0.00,0.00,VWS V14.00,2013-06-14 04:39:00,
2013-06-14 00:44:00,78.5,69.1,29.78,South,176,0.0,2.0,73,0.00,,CLR,0.00,0.00,VWS V14.00,2013-06-14 04:44:00,
2013-06-14 00:49:00,78.3,68.9,29.78,ESE,107,0.0,4.0,73,0.00,,CLR,0.00,0.00,VWS V14.00,2013-06-14 04:49:00,
2013-06-14 00:54:00,78.1,68.8,29.78,ESE,107,0.0,0.0,73,0.00,,CLR,0.00,0.00,VWS V14.00,2013-06-14 04:54:00,
2013-06-14 00:59:00,78.1,68.3,29.78,NE,49,0.0,0.0,72,0.00,,CLR,0.00,0.00,VWS V14.00,2013-06-14 04:59:00,
2013-06-14 01:04:00,77.9,68.6,29.79,NE,49,0.0,0.0,73,0.00,,CLR,0.00,0.00,VWS V14.00,2013-06-14 05:04:00,
2013-06-14 01:09:00,77.9,68.6,29.79,NE,49,0.0,0.0,73,0.00,,CLR,0.00,0.00,VWS V14.00,2013-06-14 05:09:00,
2013-06-14 01:14:00,77.7,68.4,29.79,NE,49,0.0,0.0,73,0.00,,CLR,0.00,0.00,VWS V14.00,2013-06-14 05:14:00,
2013-06-14 01:19:00,77.6,68.7,29.79,NE,49,0.0,0.0,74,0.00,,CLR,0.00,0.00,VWS V14.00,2013-06-14 05:19:00,
2013-06-14 01:24:00,77.6,68.7,29.79,NE,49,0.0,0.0,74,0.00,,CLR,0.00,0.00,VWS V14.00,2013-06-14 05:24:00,
2013-06-14 01:29:00,77.4,68.5,29.79,NNE,32,0.0,1.0,74,0.00,,CLR,0.00,0.00,VWS V14.00,2013-06-14 05:29:00,
2013-06-14 01:34:00,77.2,68.3,29.79,NNE,32,0.0,0.0,74,0.00,,CLR,0.00,0.00,VWS V14.00,2013-06-14 05:34:00,
2013-06-14 01:39:00,77.0,68.1,29.79,NNE,32,0.0,0.0,74,0.00,,CLR,0.00,0.00,VWS V14.00,2013-06-14 05:39:00,
2013-06-14 01:44:00,76.8,67.9,29.79,NNE,32,0.0,0.0,74,0.00,,CLR,0.00,0.00,VWS V14.00,2013-06-14 05:44:00,
2013-06-14 01:49:00,76.7,68.2,29.78,NE,52,0.0,4.0,75,0.00,,CLR,0.00,0.00,VWS V14.00,2013-06-14 05:49:00,
2013-06-14 01:54:00,76.5,68.0,29.78,NE,52,0.0,0.0,75,0.00,,CLR,0.00,0.00,VWS V14.00,2013-06-14 05:54:00,
2013-06-14 01:59:00,76.3,67.8,29.78,NE,55,0.0,0.0,75,0.00,,CLR,0.00,0.00,VWS V14.00,2013-06-14 05:59:00,
2013-06-14 02:04:00,76.3,68.2,29.78,NNW,339,0.0,0.0,76,0.00,,CLR,0.00,0.00,VWS V14.00,2013-06-14 06:04:00,
2013-06-14 02:09:00,76.1,68.0,29.78,NNW,339,0.0,0.0,76,0.00,,CLR,0.00,0.00,VWS V14.00,2013-06-14 06:09:00,
2013-06-14 02:14:00,76.0,67.9,29.78,NNW,344,0.0,0.0,76,0.00,,CLR,0.00,0.00,VWS V14.00,2013-06-14 06:14:00,
2013-06-14 02:19:00,75.8,67.7,29.79,NNW,344,0.0,0.0,76,0.00,,CLR,0.00,0.00,VWS V14.00,2013-06-14 06:19:00,
2013-06-14 02:24:00,75.8,68.1,29.79,NNW,344,0.0,0.0,77,0.00,,CLR,0.00,0.00,VWS V14.00,2013-06-14 06:24:00,
2013-06-14 02:29:00,75.6,67.9,29.79,NNW,344,0.0,0.0,77,0.00,,CLR,0.00,0.00,VWS V14.00,2013-06-14 06:29:00,
2013-06-14 02:34:00,75.4,67.7,29.80,NNW,344,0.0,0.0,77,0.00,,CLR,0.00,0.00,VWS V14.00,2013-06-14 06:34:00,
2013-06-14 02:39:00,75.3,68.0,29.80,NNW,344,0.0,0.0,78,0.00,,CLR,0.00,0.00,VWS V14.00,2013-06-14 06:39:00,
2013-06-14 02:44:00,75.3,68.0,29.80,NNW,344,0.0,0.0,78,0.00,,CLR,0.00,0.00,VWS V14.00,2013-06-14 06:44:00,
2013-06-14 02:49:00,75.1,67.8,29.81,NNW,344,0.0,0.0,78,0.00,,CLR,0.00,0.00,VWS V14.00,2013-06-14 06:49:00,
2013-06-14 02:54:00,74.9,67.9,29.81,NNW,344,0.0,0.0,79,0.00,,CLR,0.00,0.00,VWS V14.00,2013-06-14 06:54:00,
2013-06-14 02:59:00,74.7,67.8,29.81,NNW,344,0.0,0.0,79,0.00,,CLR,0.00,0.00,VWS V14.00,2013-06-14 06:59:00,
2013-06-14 03:04:00,74.7,68.1,29.82,NNW,344,0.0,0.0,80,0.00,,BKN065,0.00,0.00,VWS V14.00,2013-06-14 07:04:00,
2013-06-14 03:09:00,74.6,68.0,29.82,NNW,344,0.0,0.0,80,0.00,,BKN065,0.00,0.00,VWS V14.00,2013-06-14 07:09:00,
2013-06-14 03:14:00,74.6,68.0,29.82,SSW,196,1.0,2.0,80,0.00,,BKN065,0.00,0.00,VWS V14.00,2013-06-14 07:14:00,
2013-06-14 03:19:00,74.4,68.2,29.82,SSW,196,0.0,2.0,81,0.00,,BKN065,0.00,0.00,VWS V14.00,2013-06-14 07:19:00,
2013-06-14 03:24:00,74.4,68.2,29.82,SSW,196,0.0,0.0,81,0.00,,BKN065,0.00,0.00,VWS V14.00,2013-06-14 07:24:00,
2013-06-14 03:29:00,74.2,68.0,29.82,SSW,196,0.0,0.0,81,0.00,,BKN065,0.00,0.00,VWS V14.00,2013-06-14 07:29:00,
2013-06-14 03:34:00,74.2,68.0,29.82,SSW,196,0.0,0.0,81,0.00,,BKN065,0.00,0.00,VWS V14.00,2013-06-14 07:34:00,
2013-06-14 03:39:00,74.0,67.8,29.82,SSW,196,0.0,0.0,81,0.00,,BKN065,0.00,0.00,VWS V14.00,2013-06-14 07:39:00,
2013-06-14 03:44:00,74.0,67.8,29.82,SSW,196,0.0,0.0,81,0.00,,BKN065,0.00,0.00,VWS V14.00,2013-06-14 07:44:00,
2013-06-14 03:49:00,74.0,67.8,29.83,SSW,196,0.0,0.0,81,0.00,,BKN065,0.00,0.00,VWS V14.00,2013-06-14 07:49:00,
2013-06-14 03:54:00,74.0,68.2,29.83,SSW,196,0.0,0.0,82,0.00,,BKN065,0.00,0.00,VWS V14.00,2013-06-14 07:54:00,
2013-06-14 03:59:00,73.9,68.1,29.83,SSW,196,0.0,0.0,82,0.00,,BKN065,0.00,0.00,VWS V14.00,2013-06-14 07:59:00,
2013-06-14 04:04:00,73.9,68.1,29.82,SSW,196,0.0,0.0,82,0.00,,FEW070,0.00,0.00,VWS V14.00,2013-06-14 08:04:00,
2013-06-14 04:09:00,73.9,68.1,29.82,SSW,196,0.0,0.0,82,0.00,,FEW070,0.00,0.00,VWS V14.00,2013-06-14 08:09:00,
2013-06-14 04:14:00,73.7,67.9,29.82,SSW,196,0.0,0.0,82,0.00,,FEW070,0.00,0.00,VWS V14.00,2013-06-14 08:14:00,
2013-06-14 04:19:00,73.7,67.9,29.82,SSW,196,0.0,0.0,82,0.00,,FEW070,0.00,0.00,VWS V14.00,2013-06-14 08:19:00,
2013-06-14 04:24:00,73.7,68.2,29.82,SSW,196,0.0,0.0,83,0.00,,FEW070,0.00,0.00,VWS V14.00,2013-06-14 08:24:00,
2013-06-14 04:29:00,73.5,68.0,29.82,SSW,196,0.0,0.0,83,0.00,,FEW070,0.00,0.00,VWS V14.00,2013-06-14 08:29:00,
2013-06-14 04:34:00,73.5,68.0,29.82,SSW,196,0.0,0.0,83,0.00,,FEW070,0.00,0.00,VWS V14.00,2013-06-14 08:34:00,
2013-06-14 04:39:00,73.3,67.8,29.82,SSW,196,0.0,0.0,83,0.00,,FEW070,0.00,0.00,VWS V14.00,2013-06-14 08:39:00,
2013-06-14 04:44:00,73.3,67.8,29.82,SSW,196,0.0,0.0,83,0.00,,FEW070,0.00,0.00,VWS V14.00,2013-06-14 08:44:00,
2013-06-14 04:49:00,73.2,67.7,29.83,SSW,196,0.0,0.0,83,0.00,,FEW070,0.00,0.00,VWS V14.00,2013-06-14 08:49:00,
2013-06-14 04:54:00,73.0,67.9,29.83,SSW,196,0.0,0.0,84,0.00,,FEW070,0.00,0.00,VWS V14.00,2013-06-14 08:54:00,
2013-06-14 04:59:00,73.0,67.9,29.83,SSW,196,0.0,0.0,84,0.00,,FEW070,0.00,0.00,VWS V14.00,2013-06-14 08:59:00,
2013-06-14 05:04:00,72.8,67.7,29.83,SSW,196,0.0,0.0,84,0.00,,CLR,0.00,0.00,VWS V14.00,2013-06-14 09:04:00,
2013-06-14 05:09:00,72.7,67.6,29.83,SSW,196,0.0,0.0,84,0.00,,CLR,0.00,0.00,VWS V14.00,2013-06-14 09:09:00,
2013-06-14 05:14:00,72.7,67.6,29.83,SSW,196,0.0,0.0,84,0.00,,CLR,0.00,0.00,VWS V14.00,2013-06-14 09:14:00,
2013-06-14 05:19:00,72.5,67.4,29.83,SSW,196,0.0,0.0,84,0.00,,CLR,0.00,0.00,VWS V14.00,2013-06-14 09:19:00,
2013-06-14 05:24:00,72.3,67.2,29.83,SSW,196,0.0,0.0,84,0.00,,CLR,0.00,0.00,VWS V14.00,2013-06-14 09:24:00,
2013-06-14 05:29:00,72.3,67.2,29.83,SSW,196,0.0,0.0,84,0.00,,CLR,0.00,0.00,VWS V14.00,2013-06-14 09:29:00,
2013-06-14 05:34:00,72.1,67.0,29.83,SSW,196,0.0,0.0,84,0.00,,CLR,0.00,0.00,VWS V14.00,2013-06-14 09:34:00,
2013-06-14 05:39:00,72.0,67.2,29.83,SSW,196,0.0,0.0,85,0.00,,CLR,0.00,0.00,VWS V14.00,2013-06-14 09:39:00,
2013-06-14 05:44:00,72.0,67.2,29.83,SSW,196,0.0,0.0,85,0.00,,CLR,0.00,0.00,VWS V14.00,2013-06-14 09:44:00,
2013-06-14 05:49:00,72.0,67.2,29.84,SSW,196,0.0,0.0,85,0.00,,CLR,0.00,0.00,VWS V14.00,2013-06-14 09:49:00,
2013-06-14 05:54:00,71.8,67.4,29.84,SSW,196,0.0,0.0,86,0.00,,CLR,0.00,0.00,VWS V14.00,2013-06-14 09:54:00,
2013-06-14 05:59:00,71.8,67.4,29.84,SSW,196,0.0,0.0,86,0.00,,CLR,0.00,0.00,VWS V14.00,2013-06-14 09:59:00,
2013-06-14 06:04:00,71.6,67.2,29.84,SSW,196,0.0,0.0,86,0.00,,CLR,0.00,0.00,VWS V14.00,2013-06-14 10:04:00,
2013-06-14 06:09:00,71.6,67.2,29.84,SSW,196,0.0,0.0,86,0.00,,CLR,0.00,0.00,VWS V14.00,2013-06-14 10:09:00,
2013-06-14 06:14:00,71.5,67.1,29.84,SSW,196,0.0,0.0,86,0.00,,CLR,0.00,5.00,VWS V14.00,2013-06-14 10:14:00,
2013-06-14 06:19:00,71.5,67.1,29.85,SSW,196,0.0,0.0,86,0.00,,CLR,0.00,5.00,VWS V14.00,2013-06-14 10:19:00,
2013-06-14 06:24:00,71.3,66.9,29.85,SSW,196,0.0,0.0,86,0.00,,CLR,0.00,7.00,VWS V14.00,2013-06-14 10:24:00,
2013-06-14 06:29:00,71.1,66.7,29.85,SSW,196,0.0,0.0,86,0.00,,CLR,0.00,11.00,VWS V14.00,2013-06-14 10:29:00,
2013-06-14 06:34:00,70.9,66.2,29.85,SSW,198,0.0,0.0,85,0.00,,CLR,0.00,12.00,VWS V14.00,2013-06-14 10:34:00,
2013-06-14 06:39:00,70.9,66.2,29.85,SSW,198,0.0,0.0,85,0.00,,CLR,0.00,14.00,VWS V14.00,2013-06-14 10:39:00,
2013-06-14 06:44:00,70.8,66.1,29.85,SSE,161,0.0,0.0,85,0.00,,CLR,0.00,16.00,VWS V14.00,2013-06-14 10:44:00,
2013-06-14 06:49:00,70.6,65.9,29.86,NNW,347,0.0,0.0,85,0.00,,CLR,0.00,18.00,VWS V14.00,2013-06-14 10:49:00,
2013-06-14 06:54:00,70.4,65.3,29.86,NNW,347,0.0,0.0,84,0.00,,CLR,0.00,19.00,VWS V14.00,2013-06-14 10:54:00,
2013-06-14 06:59:00,70.4,65.3,29.86,NNW,347,0.0,0.0,84,0.00,,CLR,0.00,21.00,VWS V14.00,2013-06-14 10:59:00,
2013-06-14 07:04:00,70.4,65.3,29.85,NNW,347,0.0,0.0,84,0.00,,CLR,0.00,23.00,VWS V14.00,2013-06-14 11:04:00,
2013-06-14 07:09:00,70.4,66.3,29.85,NNW,347,0.0,0.0,87,0.00,,CLR,0.00,26.00,VWS V14.00,2013-06-14 11:09:00,
2013-06-14 07:14:00,70.4,66.3,29.85,NNW,347,0.0,0.0,87,0.00,,CLR,0.00,30.00,VWS V14.00,2013-06-14 11:14:00,
2013-06-14 07:19:00,70.4,66.3,29.86,NNW,347,0.0,0.0,87,0.00,,CLR,0.00,32.00,VWS V14.00,2013-06-14 11:19:00,
2013-06-14 07:24:00,70.3,65.9,29.86,SE,128,0.0,2.0,86,0.00,,CLR,0.00,44.00,VWS V14.00,2013-06-14 11:24:00,
2013-06-14 07:29:00,70.3,65.9,29.86,SE,128,0.0,2.0,86,0.00,,CLR,0.00,55.00,VWS V14.00,2013-06-14 11:29:00,
2013-06-14 07:34:00,70.3,65.6,29.87,WSW,240,0.0,0.0,85,0.00,,CLR,0.00,164.00,VWS V14.00,2013-06-14 11:34:00,
2013-06-14 07:39:00,70.4,65.3,29.87,WSW,240,0.0,0.0,84,0.00,,CLR,0.00,179.00,VWS V14.00,2013-06-14 11:39:00,
2013-06-14 07:44:00,70.6,65.5,29.87,WSW,240,0.0,0.0,84,0.00,,CLR,0.00,113.00,VWS V14.00,2013-06-14 11:44:00,
2013-06-14 07:49:00,70.8,65.4,29.88,WSW,240,0.0,0.0,83,0.00,,CLR,0.00,81.00,VWS V14.00,2013-06-14 11:49:00,
2013-06-14 07:54:00,70.9,65.5,29.88,WSW,240,0.0,0.0,83,0.00,,CLR,0.00,58.00,VWS V14.00,2013-06-14 11:54:00,
2013-06-14 07:59:00,70.9,64.4,29.88,WSW,240,0.0,0.0,80,0.00,,CLR,0.00,209.00,VWS V14.00,2013-06-14 11:59:00,
2013-06-14 08:04:00,71.1,63.9,29.88,WSW,240,0.0,0.0,78,0.00,,CLR,0.00,83.00,VWS V14.00,2013-06-14 12:04:00,
2013-06-14 08:09:00,71.5,63.5,29.88,WSW,240,0.0,0.0,76,0.00,,CLR,0.00,79.00,VWS V14.00,2013-06-14 12:09:00,
2013-06-14 08:14:00,71.6,63.6,29.88,WSW,240,0.0,0.0,76,0.00,,CLR,0.00,292.00,VWS V14.00,2013-06-14 12:14:00,
2013-06-14 08:19:00,71.8,63.1,29.90,SW,236,0.0,0.0,74,0.00,,CLR,0.00,315.00,VWS V14.00,2013-06-14 12:19:00,
2013-06-14 08:24:00,72.1,63.0,29.90,SW,236,0.0,0.0,73,0.00,,CLR,0.00,338.00,VWS V14.00,2013-06-14 12:24:00,
2013-06-14 08:29:00,72.5,63.0,29.90,WSW,250,0.0,0.0,72,0.00,,CLR,0.00,354.00,VWS V14.00,2013-06-14 12:29:00,
2013-06-14 08:34:00,73.0,62.7,29.91,WSW,250,0.0,0.0,70,0.00,,CLR,0.00,371.00,VWS V14.00,2013-06-14 12:34:00,
2013-06-14 08:39:00,73.3,62.1,29.91,ENE,73,0.0,0.0,68,0.00,,CLR,0.00,391.00,VWS V14.00,2013-06-14 12:39:00,
2013-06-14 08:44:00,73.9,62.3,29.91,ENE,73,0.0,0.0,67,0.00,,CLR,0.00,408.00,VWS V14.00,2013-06-14 12:44:00,
2013-06-14 08:49:00,74.4,63.2,29.91,ENE,68,0.0,0.0,68,0.00,,CLR,0.00,426.00,VWS V14.00,2013-06-14 12:49:00,
2013-06-14 08:54:00,74.9,61.0,29.91,East,86,0.0,0.0,62,0.00,,CLR,0.00,442.00,VWS V14.00,2013-06-14 12:54:00,
2013-06-14 08:59:00,75.3,60.9,29.91,NE,51,0.0,0.0,61,0.00,,CLR,0.00,461.00,VWS V14.00,2013-06-14 12:59:00,
2013-06-14 09:04:00,75.6,60.8,29.91,ENE,59,0.0,0.0,60,0.00,,CLR,0.00,475.00,VWS V14.00,2013-06-14 13:04:00,
2013-06-14 09:09:00,76.0,61.1,29.91,ENE,58,0.0,0.0,60,0.00,,CLR,0.00,493.00,VWS V14.00,2013-06-14 13:09:00,
2013-06-14 09:14:00,76.3,60.9,29.91,ENE,58,0.0,0.0,59,0.00,,CLR,0.00,507.00,VWS V14.00,2013-06-14 13:14:00,
2013-06-14 09:19:00,76.7,60.8,29.92,NE,56,0.0,0.0,58,0.00,,CLR,0.00,526.00,VWS V14.00,2013-06-14 13:19:00,
2013-06-14 09:24:00,76.8,60.4,29.92,NE,55,0.0,3.0,57,0.00,,CLR,0.00,542.00,VWS V14.00,2013-06-14 13:24:00,
2013-06-14 09:29:00,77.2,61.3,29.92,NE,52,0.0,3.0,58,0.00,,CLR,0.00,558.00,VWS V14.00,2013-06-14 13:29:00,
2013-06-14 09:34:00,77.4,61.5,29.92,NE,52,0.0,0.0,58,0.00,,CLR,0.00,572.00,VWS V14.00,2013-06-14 13:34:00,
2013-06-14 09:39:00,77.7,59.8,29.92,NE,52,0.0,5.0,54,0.00,,CLR,0.00,588.00,VWS V14.00,2013-06-14 13:39:00,
2013-06-14 09:44:00,77.9,59.4,29.92,South,182,0.0,2.0,53,0.00,,CLR,0.00,605.00,VWS V14.00,2013-06-14 13:44:00,
2013-06-14 09:49:00,78.1,60.1,29.92,East,89,0.0,2.0,54,0.00,,CLR,0.00,619.00,VWS V14.00,2013-06-14 13:49:00,
2013-06-14 09:54:00,78.3,59.8,29.92,SSW,192,0.0,1.0,53,0.00,,CLR,0.00,633.00,VWS V14.00,2013-06-14 13:54:00,
2013-06-14 09:59:00,78.5,60.0,29.92,ENE,59,0.0,1.0,53,0.00,,CLR,0.00,648.00,VWS V14.00,2013-06-14 13:59:00,
2013-06-14 10:04:00,78.6,60.6,29.92,ENE,59,0.0,2.0,54,0.00,,CLR,0.00,663.00,VWS V14.00,2013-06-14 14:04:00,
2013-06-14 10:09:00,79.0,59.9,29.92,ENE,66,0.0,2.0,52,0.00,,CLR,0.00,681.00,VWS V14.00,2013-06-14 14:09:00,
2013-06-14 10:14:00,79.2,60.6,29.92,East,79,0.0,2.0,53,0.00,,CLR,0.00,691.00,VWS V14.00,2013-06-14 14:14:00,
2013-06-14 10:19:00,79.6,60.4,29.92,NE,52,2.0,3.0,52,0.00,,CLR,0.00,709.00,VWS V14.00,2013-06-14 14:19:00,
2013-06-14 10:24:00,79.8,60.1,29.92,NE,52,1.0,2.0,51,0.00,,CLR,0.00,720.00,VWS V14.00,2013-06-14 14:24:00,
2013-06-14 10:29:00,79.9,60.2,29.92,NNE,30,1.0,2.0,51,0.00,,CLR,0.00,735.00,VWS V14.00,2013-06-14 14:29:00,
2013-06-14 10:34:00,80.1,59.2,29.92,NNE,30,0.0,3.0,49,0.00,,CLR,0.00,750.00,VWS V14.00,2013-06-14 14:34:00,
2013-06-14 10:39:00,80.3,60.0,29.92,NNE,27,0.0,3.0,50,0.00,,CLR,0.00,765.00,VWS V14.00,2013-06-14 14:39:00,
2013-06-14 10:44:00,80.3,59.4,29.92,East,99,0.0,3.0,49,0.00,,CLR,0.00,776.00,VWS V14.00,2013-06-14 14:44:00,
2013-06-14 10:49:00,80.5,59.0,29.91,NE,37,2.0,5.0,48,0.00,,CLR,0.00,788.00,VWS V14.00,2013-06-14 14:49:00,
2013-06-14 10:54:00,80.7,59.2,29.91,North,0,0.0,2.0,48,0.00,,CLR,0.00,799.00,VWS V14.00,2013-06-14 14:54:00,
2013-06-14 10:59:00,81.1,60.2,29.91,North,0,1.0,2.0,49,0.00,,CLR,0.00,811.00,VWS V14.00,2013-06-14 14:59:00,
2013-06-14 11:04:00,81.4,58.7,29.91,North,0,0.0,2.0,46,0.00,,CLR,0.00,823.00,VWS V14.00,2013-06-14 15:04:00,
2013-06-14 11:09:00,81.4,59.3,29.91,North,359,0.0,2.0,47,0.00,,CLR,0.00,836.00,VWS V14.00,2013-06-14 15:09:00,
2013-06-14 11:14:00,81.8,59.6,29.91,SE,124,1.0,3.0,47,0.00,,CLR,0.00,846.00,VWS V14.00,2013-06-14 15:14:00,
2013-06-14 11:19:00,82.2,59.4,29.91,NE,34,2.0,3.0,46,0.00,,CLR,0.00,857.00,VWS V14.00,2013-06-14 15:19:00,
2013-06-14 11:24:00,82.4,59.0,29.91,NE,35,0.0,1.0,45,0.00,,CLR,0.00,869.00,VWS V14.00,2013-06-14 15:24:00,
2013-06-14 11:29:00,82.6,59.8,29.91,NE,35,1.0,3.0,46,0.00,,CLR,0.00,880.00,VWS V14.00,2013-06-14 15:29:00,
2013-06-14 11:34:00,82.8,58.7,29.91,East,82,1.0,3.0,44,0.00,,CLR,0.00,887.00,VWS V14.00,2013-06-14 15:34:00,
2013-06-14 11:39:00,82.6,60.3,29.91,East,80,0.0,3.0,47,0.00,,CLR,0.00,896.00,VWS V14.00,2013-06-14 15:39:00,
2013-06-14 11:44:00,82.6,59.1,29.91,ENE,72,1.0,2.0,45,0.00,,CLR,0.00,906.00,VWS V14.00,2013-06-14 15:44:00,
2013-06-14 11:49:00,83.2,58.4,29.91,NNW,344,0.0,2.0,43,0.00,,CLR,0.00,917.00,VWS V14.00,2013-06-14 15:49:00,
2013-06-14 11:54:00,83.8,59.6,29.91,NNW,344,0.0,1.0,44,0.00,,CLR,0.00,922.00,VWS V14.00,2013-06-14 15:54:00,
2013-06-14 11:59:00,83.8,58.9,29.91,East,90,0.0,2.0,43,0.00,,CLR,0.00,924.00,VWS V14.00,2013-06-14 15:59:00,
2013-06-14 12:04:00,84.0,58.5,29.92,East,90,1.0,2.0,42,0.00,,CLR,0.00,934.00,VWS V14.00,2013-06-14 16:04:00,
2013-06-14 12:09:00,84.3,58.7,29.92,East,89,1.0,2.0,42,0.00,,CLR,0.00,947.00,VWS V14.00,2013-06-14 16:09:00,
2013-06-14 12:14:00,84.5,59.6,29.92,ENE,69,0.0,3.0,43,0.00,,CLR,0.00,948.00,VWS V14.00,2013-06-14 16:14:00,
2013-06-14 12:19:00,84.7,58.4,29.92,NE,51,0.0,3.0,41,0.00,,CLR,0.00,955.00,VWS V14.00,2013-06-14 16:19:00,
2013-06-14 12:24:00,85.1,62.0,29.92,NE,51,0.0,2.0,46,0.00,,CLR,0.00,957.00,VWS V14.00,2013-06-14 16:24:00,
2013-06-14 12:29:00,85.1,59.5,29.92,East,86,0.0,3.0,42,0.00,,CLR,0.00,968.00,VWS V14.00,2013-06-14 16:29:00,
2013-06-14 12:34:00,85.3,56.8,29.92,SE,130,0.0,2.0,38,0.00,,CLR,0.00,975.00,VWS V14.00,2013-06-14 16:34:00,
2013-06-14 12:39:00,85.5,58.5,29.92,East,97,0.0,2.0,40,0.00,,CLR,0.00,978.00,VWS V14.00,2013-06-14 16:39:00,
2013-06-14 12:44:00,85.9,58.8,29.92,ENE,78,1.0,2.0,40,0.00,,CLR,0.00,977.00,VWS V14.00,2013-06-14 16:44:00,
2013-06-14 12:49:00,85.7,57.2,29.91,East,95,5.0,5.0,38,0.00,,CLR,0.00,982.00,VWS V14.00,2013-06-14 16:49:00,
2013-06-14 12:54:00,85.5,58.5,29.91,ESE,103,0.0,2.0,40,0.00,,CLR,0.00,987.00,VWS V14.00,2013-06-14 16:54:00,
2013-06-14 12:59:00,86.1,59.7,29.91,ESE,102,0.0,2.0,41,0.00,,CLR,0.00,987.00,VWS V14.00,2013-06-14 16:59:00,
2013-06-14 13:04:00,87.0,61.8,29.91,NNW,337,0.0,0.0,43,0.00,,CLR,0.00,991.00,VWS V14.00,2013-06-14 17:04:00,
2013-06-14 13:09:00,86.7,58.8,29.91,SW,227,0.0,7.0,39,0.00,,CLR,0.00,994.00,VWS V14.00,2013-06-14 17:09:00,
2013-06-14 13:14:00,87.0,56.1,29.91,SW,229,0.0,2.0,35,0.00,,CLR,0.00,996.00,VWS V14.00,2013-06-14 17:14:00,
2013-06-14 13:19:00,86.5,58.6,29.91,East,79,0.0,3.0,39,0.00,,CLR,0.00,992.00,VWS V14.00,2013-06-14 17:19:00,
2013-06-14 13:24:00,87.2,60.7,29.91,NNE,21,2.0,3.0,41,0.00,,CLR,0.00,999.00,VWS V14.00,2013-06-14 17:24:00,
2013-06-14 13:29:00,87.0,57.6,29.91,ESE,103,0.0,3.0,37,0.00,,CLR,0.00,994.00,VWS V14.00,2013-06-14 17:29:00,
2013-06-14 13:34:00,87.2,60.0,29.90,NNE,31,1.0,2.0,40,0.00,,CLR,0.00,998.00,VWS V14.00,2013-06-14 17:34:00,
2013-06-14 13:39:00,87.8,59.1,29.90,NNE,28,1.0,2.0,38,0.00,,CLR,0.00,992.00,VWS V14.00,2013-06-14 17:39:00,
2013-06-14 13:44:00,88.0,60.0,29.90,NNE,27,0.0,2.0,39,0.00,,CLR,0.00,991.00,VWS V14.00,2013-06-14 17:44:00,
2013-06-14 13:49:00,88.0,59.2,29.90,NNE,27,1.0,2.0,38,0.00,,CLR,0.00,987.00,VWS V14.00,2013-06-14 17:49:00,
2013-06-14 13:54:00,88.0,60.7,29.90,NNE,25,2.0,3.0,40,0.00,,CLR,0.00,987.00,VWS V14.00,2013-06-14 17:54:00,
2013-06-14 13:59:00,88.4,61.0,29.90,NNE,24,0.0,3.0,40,0.00,,CLR,0.00,998.00,VWS V14.00,2013-06-14 17:59:00,
2013-06-14 14:04:00,88.6,59.8,29.90,NNE,24,1.0,2.0,38,0.00,,CLR,0.00,992.00,VWS V14.00,2013-06-14 18:04:00,
2013-06-14 14:09:00,88.4,61.0,29.90,NNE,23,1.0,2.0,40,0.00,,CLR,0.00,992.00,VWS V14.00,2013-06-14 18:09:00,
2013-06-14 14:14:00,88.4,61.0,29.90,North,354,1.0,3.0,40,0.00,,CLR,0.00,992.00,VWS V14.00,2013-06-14 18:14:00,
2013-06-14 14:19:00,88.8,59.9,29.90,NNE,27,2.0,3.0,38,0.00,,CLR,0.00,977.00,VWS V14.00,2013-06-14 18:19:00,
2013-06-14 14:24:00,89.0,62.3,29.90,NNE,25,1.0,3.0,41,0.00,,CLR,0.00,982.00,VWS V14.00,2013-06-14 18:24:00,
2013-06-14 14:29:00,89.0,57.8,29.90,NNE,25,0.0,3.0,35,0.00,,CLR,0.00,968.00,VWS V14.00,2013-06-14 18:29:00,
2013-06-14 14:34:00,88.8,56.0,29.90,NE,37,0.0,1.0,33,0.00,,CLR,0.00,961.00,VWS V14.00,2013-06-14 18:34:00,
2013-06-14 14:39:00,88.8,59.2,29.90,NNE,31,1.0,3.0,37,0.00,,CLR,0.00,962.00,VWS V14.00,2013-06-14 18:39:00,
2013-06-14 14:44:00,89.0,58.6,29.90,NNE,25,1.0,2.0,36,0.00,,CLR,0.00,940.00,VWS V14.00,2013-06-14 18:44:00,
2013-06-14 14:49:00,89.3,58.9,29.90,NE,40,2.0,2.0,36,0.00,,CLR,0.00,947.00,VWS V14.00,2013-06-14 18:49:00,
2013-06-14 14:54:00,89.3,57.3,29.90,NE,40,0.0,3.0,34,0.00,,CLR,0.00,947.00,VWS V14.00,2013-06-14 18:54:00,
2013-06-14 14:59:00,89.5,59.0,29.90,NE,40,0.0,3.0,36,0.00,,CLR,0.00,957.00,VWS V14.00,2013-06-14 18:59:00,
2013-06-14 15:04:00,89.5,59.0,29.91,NNE,28,0.0,5.0,36,0.00,,CLR,0.00,973.00,VWS V14.00,2013-06-14 19:04:00,
2013-06-14 15:09:00,89.3,57.3,29.91,NNE,31,0.0,5.0,34,0.00,,CLR,0.00,962.00,VWS V14.00,2013-06-14 19:09:00,
2013-06-14 15:14:00,89.3,55.6,29.91,NE,34,2.0,3.0,32,0.00,,CLR,0.00,920.00,VWS V14.00,2013-06-14 19:14:00,
2013-06-14 15:19:00,88.8,55.2,29.91,NNE,13,1.0,3.0,32,0.00,,CLR,0.00,906.00,VWS V14.00,2013-06-14 19:19:00,
2013-06-14 15:24:00,89.0,59.4,29.91,NE,38,0.0,3.0,37,0.00,,CLR,0.00,899.00,VWS V14.00,2013-06-14 19:24:00,
2013-06-14 15:29:00,89.7,56.8,29.91,NE,38,0.0,3.0,33,0.00,,CLR,0.00,890.00,VWS V14.00,2013-06-14 19:29:00,
2013-06-14 15:34:00,89.7,56.0,29.91,NE,42,0.0,5.0,32,0.00,,CLR,0.00,885.00,VWS V14.00,2013-06-14 19:34:00,
2013-06-14 15:39:00,90.1,58.0,29.91,NE,42,0.0,5.0,34,0.00,,CLR,0.00,866.00,VWS V14.00,2013-06-14 19:39:00,
2013-06-14 15:44:00,90.1,55.4,29.91,SSE,151,1.0,3.0,31,0.00,,CLR,0.00,852.00,VWS V14.00,2013-06-14 19:44:00,
2013-06-14 15:49:00,90.3,58.2,29.91,SSE,161,0.0,3.0,34,0.00,,CLR,0.00,846.00,VWS V14.00,2013-06-14 19:49:00,
2013-06-14 15:54:00,90.5,55.8,29.91,NE,34,2.0,3.0,31,0.00,,CLR,0.00,834.00,VWS V14.00,2013-06-14 19:54:00,
2013-06-14 15:59:00,90.1,55.4,29.91,North,357,1.0,3.0,31,0.00,,CLR,0.00,818.00,VWS V14.00,2013-06-14 19:59:00,
2013-06-14 16:04:00,90.3,55.6,29.91,North,0,0.0,1.0,31,0.00,,CLR,0.00,811.00,VWS V14.00,2013-06-14 20:04:00,
2013-06-14 16:09:00,90.5,55.8,29.91,North,1,2.0,2.0,31,0.00,,CLR,0.00,801.00,VWS V14.00,2013-06-14 20:09:00,
2013-06-14 16:14:00,90.5,55.8,29.91,North,0,0.0,2.0,31,0.00,,CLR,0.00,792.00,VWS V14.00,2013-06-14 20:14:00,
2013-06-14 16:19:00,90.7,56.8,29.91,North,0,0.0,2.0,32,0.00,,CLR,0.00,779.00,VWS V14.00,2013-06-14 20:19:00,
2013-06-14 16:24:00,90.3,57.3,29.91,North,1,0.0,0.0,33,0.00,,CLR,0.00,787.00,VWS V14.00,2013-06-14 20:24:00,
2013-06-14 16:29:00,90.3,56.5,29.91,NNE,13,0.0,3.0,32,0.00,,CLR,0.00,758.00,VWS V14.00,2013-06-14 20:29:00,
2013-06-14 16:34:00,90.1,56.3,29.91,SSE,158,0.0,3.0,32,0.00,,CLR,0.00,741.00,VWS V14.00,2013-06-14 20:34:00,
2013-06-14 16:39:00,90.3,58.2,29.91,West,261,0.0,3.0,34,0.00,,CLR,0.00,737.00,VWS V14.00,2013-06-14 20:39:00,
2013-06-14 16:44:00,90.1,54.5,29.91,WSW,239,0.0,2.0,30,0.00,,CLR,0.00,734.00,VWS V14.00,2013-06-14 20:44:00,
2013-06-14 16:49:00,90.1,58.8,29.91,WSW,239,0.0,2.0,35,0.00,,CLR,0.00,744.00,VWS V14.00,2013-06-14 20:49:00,
2013-06-14 16:54:00,90.3,56.5,29.91,NE,42,0.0,2.0,32,0.00,,CLR,0.00,713.00,VWS V14.00,2013-06-14 20:54:00,
2013-06-14 16:59:00,90.3,55.6,29.91,North,0,1.0,2.0,31,0.00,,CLR,0.00,679.00,VWS V14.00,2013-06-14 20:59:00,
2013-06-14 17:04:00,89.9,54.3,29.91,North,6,1.0,2.0,30,0.00,,CLR,0.00,649.00,VWS V14.00,2013-06-14 21:04:00,
2013-06-14 17:09:00,89.9,57.0,29.91,NNE,30,0.0,3.0,33,0.00,,CLR,0.00,633.00,VWS V14.00,2013-06-14 21:09:00,
2013-06-14 17:14:00,89.7,58.4,29.91,NNE,32,1.0,2.0,35,0.00,,CLR,0.00,628.00,VWS V14.00,2013-06-14 21:14:00,
2013-06-14 17:19:00,89.3,57.3,29.91,NE,35,0.0,2.0,34,0.00,,CLR,0.00,628.00,VWS V14.00,2013-06-14 21:19:00,
2013-06-14 17:24:00,88.6,57.5,29.91,East,90,0.0,7.0,35,0.00,,CLR,0.00,625.00,VWS V14.00,2013-06-14 21:24:00,
2013-06-14 17:29:00,88.6,57.5,29.91,East,90,0.0,7.0,35,0.00,,CLR,0.00,665.00,VWS V14.00,2013-06-14 21:29:00,
2013-06-14 17:34:00,88.6,56.7,29.91,East,80,0.0,0.0,34,0.00,,CLR,0.00,572.00,VWS V14.00,2013-06-14 21:34:00,
2013-06-14 17:39:00,88.6,57.5,29.91,SW,226,3.0,3.0,35,0.00,,CLR,0.00,315.00,VWS V14.00,2013-06-14 21:39:00,
2013-06-14 17:44:00,88.2,59.4,29.91,ENE,73,0.0,4.0,38,0.00,,CLR,0.00,141.00,VWS V14.00,2013-06-14 21:44:00,
2013-06-14 17:49:00,87.8,56.8,29.91,ENE,66,0.0,4.0,35,0.00,,CLR,0.00,116.00,VWS V14.00,2013-06-14 21:49:00,
2013-06-14 17:54:00,87.0,56.8,29.91,ENE,75,0.0,2.0,36,0.00,,CLR,0.00,104.00,VWS V14.00,2013-06-14 21:54:00,
2013-06-14 18:00:00,86.1,57.5,29.91,SSE,167,0.0,2.0,38,0.00,,CLR,0.00,88.00,VWS V14.00,2013-06-14 22:00:00,
2013-06-14 18:04:00,85.3,59.6,29.91,SSE,167,0.0,0.0,42,0.00,,CLR,0.00,69.00,VWS V14.00,2013-06-14 22:04:00,
2013-06-14 18:10:00,84.9,58.6,29.91,South,169,0.0,1.0,41,0.00,,CLR,0.00,72.00,VWS V14.00,2013-06-14 22:10:00,
2013-06-14 18:15:00,84.5,58.2,29.91,South,169,0.0,0.0,41,0.00,,CLR,0.00,74.00,VWS V14.00,2013-06-14 22:15:00,
2013-06-14 18:20:00,84.1,59.2,29.91,North,0,0.0,2.0,43,0.00,,CLR,0.00,74.00,VWS V14.00,2013-06-14 22:20:00,
2013-06-14 18:25:00,83.8,57.6,29.91,North,0,0.0,0.0,41,0.00,,CLR,0.00,121.00,VWS V14.00,2013-06-14 22:25:00,
2013-06-14 18:30:00,83.6,58.8,29.91,ENE,78,0.0,1.0,43,0.00,,CLR,0.00,55.00,VWS V14.00,2013-06-14 22:30:00,
2013-06-14 18:35:00,83.4,58.6,29.92,ENE,78,0.0,0.0,43,0.00,,CLR,0.00,95.00,VWS V14.00,2013-06-14 22:35:00,
2013-06-14 18:40:00,83.2,57.8,29.92,West,263,1.0,2.0,42,0.00,,CLR,0.00,100.00,VWS V14.00,2013-06-14 22:40:00,
2013-06-14 18:45:00,83.0,58.9,29.92,SW,227,0.0,1.0,44,0.00,,CLR,0.00,76.00,VWS V14.00,2013-06-14 22:45:00,
2013-06-14 18:50:00,82.8,57.4,29.92,ESE,103,0.0,1.0,42,0.00,,CLR,0.00,88.00,VWS V14.00,2013-06-14 22:50:00,
2013-06-14 18:55:00,82.6,59.1,29.92,ESE,110,0.0,0.0,45,0.00,,CLR,0.00,70.00,VWS V14.00,2013-06-14 22:55:00,
2013-06-14 19:00:00,82.4,59.0,29.92,ESE,110,0.0,0.0,45,0.00,,CLR,0.00,42.00,VWS V14.00,2013-06-14 23:00:00,
2013-06-14 19:05:00,82.0,59.8,29.93,SE,128,0.0,0.0,47,0.00,,CLR,0.00,39.00,VWS V14.00,2013-06-14 23:05:00,
2013-06-14 19:10:00,81.8,60.2,29.93,SE,128,0.0,0.0,48,0.00,,CLR,0.00,42.00,VWS V14.00,2013-06-14 23:10:00,
2013-06-14 19:15:00,81.4,60.4,29.93,SE,128,0.0,0.0,49,0.00,,CLR,0.00,35.00,VWS V14.00,2013-06-14 23:15:00,
2013-06-14 19:20:00,81.2,59.7,29.94,SE,128,0.0,0.0,48,0.00,,CLR,0.00,37.00,VWS V14.00,2013-06-14 23:20:00,
2013-06-14 19:25:00,80.9,60.5,29.94,SE,128,0.0,0.0,50,0.00,,CLR,0.00,37.00,VWS V14.00,2013-06-14 23:25:00,
2013-06-14 19:30:00,80.7,61.5,29.94,SE,128,0.0,0.0,52,0.00,,CLR,0.00,30.00,VWS V14.00,2013-06-14 23:30:00,
2013-06-14 19:35:00,80.1,60.4,29.94,SE,128,0.0,0.0,51,0.00,,CLR,0.00,25.00,VWS V14.00,2013-06-14 23:35:00,
2013-06-14 19:40:00,79.8,60.1,29.94,SE,128,0.0,0.0,51,0.00,,CLR,0.00,26.00,VWS V14.00,2013-06-14 23:40:00,
2013-06-14 19:45:00,79.4,60.8,29.95,SE,128,0.0,0.0,53,0.00,,CLR,0.00,26.00,VWS V14.00,2013-06-14 23:45:00,
2013-06-14 19:50:00,79.0,59.9,29.95,SE,128,0.0,0.0,52,0.00,,CLR,0.00,25.00,VWS V14.00,2013-06-14 23:50:00,
2013-06-14 19:55:00,78.6,61.1,29.95,SE,128,0.0,0.0,55,0.00,,CLR,0.00,23.00,VWS V14.00,2013-06-14 23:55:00,
2013-06-14 20:00:00,78.3,61.8,29.96,SE,128,0.0,0.0,57,0.00,,CLR,0.00,21.00,VWS V14.00,2013-06-15 00:00:00,
2013-06-14 20:05:00,77.9,62.4,29.96,SE,128,0.0,0.0,59,0.00,,FEW075,0.00,19.00,VWS V14.00,2013-06-15 00:05:00,
2013-06-14 20:10:00,77.4,62.0,29.96,SE,128,0.0,0.0,59,0.00,,FEW075,0.00,18.00,VWS V14.00,2013-06-15 00:10:00,
2013-06-14 20:15:00,77.2,62.7,29.96,SE,128,0.0,0.0,61,0.00,,FEW075,0.00,16.00,VWS V14.00,2013-06-15 00:15:00,
2013-06-14 20:20:00,77.0,62.1,29.96,SE,128,0.0,0.0,60,0.00,,FEW075,0.00,12.00,VWS V14.00,2013-06-15 00:20:00,
2013-06-14 20:25:00,76.8,61.9,29.96,SE,128,0.0,0.0,60,0.00,,FEW075,0.00,11.00,VWS V14.00,2013-06-15 00:25:00,
2013-06-14 20:30:00,76.7,61.8,29.96,SE,128,0.0,0.0,60,0.00,,FEW075,0.00,9.00,VWS V14.00,2013-06-15 00:30:00,
2013-06-14 20:35:00,76.5,61.1,29.96,SE,128,0.0,0.0,59,0.00,,FEW075,0.00,5.00,VWS V14.00,2013-06-15 00:35:00,
2013-06-14 20:40:00,76.3,62.3,29.96,SE,128,0.0,0.0,62,0.00,,FEW075,0.00,5.00,VWS V14.00,2013-06-15 00:40:00,
2013-06-14 20:45:00,76.0,62.5,29.97,SE,128,0.0,0.0,63,0.00,,FEW075,0.00,0.00,VWS V14.00,2013-06-15 00:45:00,
2013-06-14 20:50:00,75.4,62.4,29.97,SE,128,0.0,0.0,64,0.00,,FEW075,0.00,0.00,VWS V14.00,2013-06-15 00:50:00,
2013-06-14 20:55:00,75.3,62.3,29.97,SE,128,0.0,0.0,64,0.00,,FEW075,0.00,0.00,VWS V14.00,2013-06-15 00:55:00,
2013-06-14 21:00:00,74.9,60.1,29.97,SE,128,0.0,0.0,60,0.00,,FEW075,0.00,0.00,VWS V14.00,2013-06-15 01:00:00,
2013-06-14 21:05:00,74.6,62.5,29.97,SE,128,0.0,0.0,66,0.00,,CLR,0.00,0.00,VWS V14.00,2013-06-15 01:05:00,
2013-06-14 21:10:00,74.2,60.4,29.97,SE,128,0.0,0.0,62,0.00,,CLR,0.00,0.00,VWS V14.00,2013-06-15 01:10:00,
2013-06-14 21:15:00,73.9,61.0,29.98,SE,128,0.0,0.0,64,0.00,,CLR,0.00,0.00,VWS V14.00,2013-06-15 01:15:00,
2013-06-14 21:20:00,73.5,61.0,29.98,SE,128,0.0,0.0,65,0.00,,CLR,0.00,0.00,VWS V14.00,2013-06-15 01:20:00,
2013-06-14 21:25:00,73.3,60.4,29.98,SE,128,0.0,0.0,64,0.00,,CLR,0.00,0.00,VWS V14.00,2013-06-15 01:25:00,
2013-06-14 21:30:00,73.2,61.2,29.98,SE,128,0.0,0.0,66,0.00,,CLR,0.00,0.00,VWS V14.00,2013-06-15 01:30:00,
2013-06-14 21:35:00,73.0,61.4,29.98,SE,128,0.0,0.0,67,0.00,,CLR,0.00,0.00,VWS V14.00,2013-06-15 01:35:00,
2013-06-14 21:40:00,72.7,61.5,29.98,SE,128,0.0,0.0,68,0.00,,CLR,0.00,0.00,VWS V14.00,2013-06-15 01:40:00,
2013-06-14 21:45:00,72.3,61.2,29.98,SE,128,0.0,0.0,68,0.00,,CLR,0.00,0.00,VWS V14.00,2013-06-15 01:45:00,
2013-06-14 21:50:00,72.1,61.0,29.98,SE,128,0.0,0.0,68,0.00,,CLR,0.00,0.00,VWS V14.00,2013-06-15 01:50:00,
2013-06-14 21:55:00,71.8,61.1,29.98,SE,128,0.0,0.0,69,0.00,,CLR,0.00,0.00,VWS V14.00,2013-06-15 01:55:00,
2013-06-14 22:00:00,71.6,60.9,29.99,SE,128,0.0,0.0,69,0.00,,CLR,0.00,0.00,VWS V14.00,2013-06-15 02:00:00,
2013-06-14 22:05:00,71.5,61.2,29.99,SE,128,0.0,0.0,70,0.00,,CLR,0.00,0.00,VWS V14.00,2013-06-15 02:05:00,
2013-06-14 22:10:00,71.3,61.0,29.99,SE,128,0.0,0.0,70,0.00,,CLR,0.00,0.00,VWS V14.00,2013-06-15 02:10:00,
2013-06-14 22:15:00,71.1,60.8,30.00,SE,128,0.0,0.0,70,0.00,,CLR,0.00,0.00,VWS V14.00,2013-06-15 02:15:00,
2013-06-14 22:20:00,71.1,60.8,30.00,SE,128,0.0,0.0,70,0.00,,CLR,0.00,0.00,VWS V14.00,2013-06-15 02:20:00,
2013-06-14 22:25:00,70.9,60.6,30.00,SE,128,0.0,0.0,70,0.00,,CLR,0.00,0.00,VWS V14.00,2013-06-15 02:25:00,
2013-06-14 22:30:00,70.8,60.5,30.01,SE,128,0.0,0.0,70,0.00,,CLR,0.00,0.00,VWS V14.00,2013-06-15 02:30:00,
2013-06-14 22:35:00,70.6,60.3,30.01,SE,128,0.0,0.0,70,0.00,,CLR,0.00,0.00,VWS V14.00,2013-06-15 02:35:00,
2013-06-14 22:40:00,70.3,60.5,30.01,SE,128,0.0,0.0,71,0.00,,CLR,0.00,0.00,VWS V14.00,2013-06-15 02:40:00,
2013-06-14 22:45:00,70.1,60.3,30.02,SE,128,0.0,0.0,71,0.00,,CLR,0.00,0.00,VWS V14.00,2013-06-15 02:45:00,
2013-06-14 22:50:00,69.9,60.5,30.02,SE,128,0.0,0.0,72,0.00,,CLR,0.00,0.00,VWS V14.00,2013-06-15 02:50:00,
2013-06-14 22:55:00,69.8,60.4,30.02,SE,128,0.0,0.0,72,0.00,,CLR,0.00,0.00,VWS V14.00,2013-06-15 02:55:00,
2013-06-14 23:00:00,69.4,60.4,30.02,SE,128,0.0,0.0,73,0.00,,CLR,0.00,0.00,VWS V14.00,2013-06-15 03:00:00,
2013-06-14 23:05:00,69.4,60.4,30.02,SE,128,0.0,0.0,73,0.00,,CLR,0.00,0.00,VWS V14.00,2013-06-15 03:05:00,
2013-06-14 23:10:00,69.3,60.3,30.02,SE,128,0.0,0.0,73,0.00,,CLR,0.00,0.00,VWS V14.00,2013-06-15 03:10:00,
2013-06-14 23:15:00,69.1,60.1,30.03,SE,128,0.0,0.0,73,0.00,,CLR,0.00,0.00,VWS V14.00,2013-06-15 03:15:00,
2013-06-14 23:20:00,68.9,59.5,30.03,SE,128,0.0,0.0,72,0.00,,CLR,0.00,0.00,VWS V14.00,2013-06-15 03:20:00,
2013-06-14 23:25:00,68.9,59.5,30.03,SE,128,0.0,0.0,72,0.00,,CLR,0.00,0.00,VWS V14.00,2013-06-15 03:25:00,
2013-06-14 23:30:00,68.8,59.8,30.04,SE,128,0.0,0.0,73,0.00,,CLR,0.00,0.00,VWS V14.00,2013-06-15 03:30:00,
2013-06-14 23:35:00,68.8,59.4,30.04,SE,128,0.0,0.0,72,0.00,,CLR,0.00,0.00,VWS V14.00,2013-06-15 03:35:00,
2013-06-14 23:40:00,68.6,59.2,30.04,SE,128,0.0,0.0,72,0.00,,CLR,0.00,0.00,VWS V14.00,2013-06-15 03:40:00,
2013-06-14 23:45:00,68.6,59.6,30.04,SE,128,0.0,0.0,73,0.00,,CLR,0.00,0.00,VWS V14.00,2013-06-15 03:45:00,
2013-06-14 23:50:00,68.4,59.8,30.04,SE,128,0.0,0.0,74,0.00,,CLR,0.00,0.00,VWS V14.00,2013-06-15 03:50:00,
2013-06-14 23:55:00,68.4,59.8,30.04,SE,128,0.0,0.0,74,0.00,,CLR,0.00,0.00,VWS V14.00,2013-06-15 03:55:00,